createdAt,value
2022-10-06T00:31:51.364Z,99.90
2022-10-06T00:34:26.657Z,99.90
2022-10-06T00:36:37.278Z,99.90
2022-10-06T00:53:07.588Z,99.90
2022-10-06T00:55:28.466Z,99.90
2022-10-06T00:58:21.755Z,99.90
2022-10-06T01:09:22.165Z,99.90
2022-10-06T01:40:23.233Z,99.90
2022-10-06T01:43:21.150Z,99.90
2022-10-06T01:51:17.511Z,99.90
2022-10-06T02:10:56.457Z,99.90
2022-10-06T02:21:16.508Z,99.90
2022-10-06T02:23:28.118Z,99.90
2022-10-06T02:29:50.726Z,99.90
2022-10-06T02:31:55.768Z,99.90
2022-10-06T02:34:33.272Z,99.90
2022-10-06T02:40:23.624Z,99.90
2022-10-06T02:54:39.095Z,99.90
2022-10-06T02:57:43.168Z,99.90
2022-10-06T03:00:35.885Z,99.90
2022-10-06T03:00:52.622Z,99.90
2022-10-06T03:03:03.174Z,99.90
2022-10-06T03:05:07.375Z,99.90
2022-10-06T03:07:25.611Z,99.90
2022-10-06T03:09:38.041Z,99.90
2022-10-06T03:11:52.330Z,99.90
2022-10-06T03:14:36.772Z,99.90
2022-10-06T03:17:12.705Z,99.90
2022-10-06T03:21:42.079Z,99.90
2022-10-06T03:24:25.094Z,99.90
2022-10-06T03:26:33.481Z,99.90
2022-10-06T03:28:40.817Z,99.90
2022-10-06T03:30:44.413Z,99.90
2022-10-06T03:32:47.977Z,99.90
2022-10-06T03:35:11.535Z,99.90
2022-10-06T03:39:53.706Z,99.90
2022-10-06T03:42:25.051Z,99.90
2022-10-06T03:47:42.261Z,99.90
2022-10-06T03:57:44.137Z,99.90
2022-10-06T03:59:47.720Z,99.90
2022-10-06T04:02:23.393Z,99.90
2022-10-06T04:04:55.577Z,99.90
2022-10-06T04:07:04.418Z,99.90
2022-10-06T04:09:15.309Z,99.90
2022-10-06T04:11:26.701Z,99.90
2022-10-06T04:13:49.625Z,99.90
2022-10-06T04:16:39.072Z,99.90
2022-10-06T04:18:55.715Z,99.90
2022-10-06T04:21:02.348Z,99.90
2022-10-06T04:23:43.766Z,99.90
2022-10-06T04:25:55.178Z,99.90
2022-10-06T04:28:05.706Z,99.90
2022-10-06T04:30:14.720Z,99.90
2022-10-06T04:38:39.984Z,99.90
2022-10-06T04:40:43.325Z,99.90
2022-10-06T04:42:51.101Z,99.90
2022-10-06T04:47:28.013Z,99.90
2022-10-06T04:49:34.066Z,99.90
2022-10-06T04:52:05.972Z,99.90
2022-10-06T04:54:13.079Z,99.90
2022-10-06T04:56:18.078Z,99.90
2022-10-06T04:58:34.026Z,99.90
2022-10-06T05:00:40.096Z,99.90
2022-10-06T05:02:48.409Z,99.90
2022-10-06T05:04:52.737Z,99.90
2022-10-06T05:07:07.246Z,99.90
2022-10-06T05:09:28.742Z,99.90
2022-10-06T05:12:02.004Z,99.90
2022-10-06T05:22:16.910Z,99.90
2022-10-06T05:27:02.130Z,99.90
2022-10-06T05:40:06.251Z,99.90
2022-10-06T05:42:15.491Z,99.90
2022-10-06T05:44:36.994Z,99.90
2022-10-06T05:46:40.619Z,99.90
2022-10-06T05:48:46.409Z,99.90
2022-10-06T05:51:45.111Z,99.90
2022-10-06T05:54:18.398Z,99.90
2022-10-06T05:56:22.617Z,99.90
2022-10-06T05:59:29.010Z,99.90
2022-10-06T06:04:45.844Z,99.90
2022-10-06T06:07:43.716Z,99.90
2022-10-06T06:10:01.503Z,99.90
2022-10-06T06:12:05.825Z,99.90
2022-10-06T06:17:39.216Z,99.90
2022-10-06T06:23:14.487Z,99.90
2022-10-06T06:26:34.903Z,99.90
2022-10-06T06:32:18.092Z,99.90
2022-10-06T06:38:15.312Z,99.90
2022-10-06T06:40:20.268Z,99.90
2022-10-06T06:42:31.157Z,99.90
2022-10-06T06:44:51.087Z,99.90
2022-10-06T06:46:57.405Z,99.90
2022-10-06T06:49:37.205Z,99.90
2022-10-06T06:59:20.739Z,99.90
2022-10-06T07:10:15.667Z,99.90
2022-10-06T07:29:01.566Z,99.90
2022-10-06T07:31:19.345Z,99.90
2022-10-06T07:46:39.832Z,99.90
2022-10-06T07:49:29.933Z,99.90
2022-10-06T07:57:58.347Z,99.90
2022-10-06T08:00:36.535Z,99.90
2022-10-06T08:03:24.592Z,99.90
2022-10-06T08:09:28.557Z,99.90
2022-10-06T08:11:32.147Z,99.90
2022-10-06T08:13:36.690Z,99.90
2022-10-06T08:15:51.509Z,99.90
2022-10-06T08:17:57.784Z,99.90
2022-10-06T08:20:04.592Z,99.90
2022-10-06T08:22:08.145Z,99.90
2022-10-06T08:24:23.398Z,99.90
2022-10-06T08:26:27.467Z,99.90
2022-10-06T08:28:36.828Z,99.90
2022-10-06T08:30:52.377Z,99.90
2022-10-06T08:33:01.211Z,99.90
2022-10-06T08:39:07.515Z,99.90
2022-10-06T08:41:36.728Z,99.90
2022-10-06T08:44:16.004Z,99.90
2022-10-06T08:46:26.260Z,99.90
2022-10-06T08:48:51.521Z,99.90
2022-10-06T08:54:29.597Z,99.90
2022-10-06T10:17:21.136Z,93.20
2022-10-06T10:19:31.765Z,93.30
2022-10-06T10:44:07.890Z,84.50
2022-10-06T10:46:32.599Z,85.10
2022-10-06T10:55:40.492Z,85.70
2022-10-06T10:57:47.189Z,83.90
2022-10-06T11:00:10.859Z,84.10
2022-10-06T11:12:40.307Z,81.30
2022-10-06T11:21:40.312Z,81.00
2022-10-06T11:26:14.780Z,81.60
2022-10-06T11:31:21.941Z,80.90
2022-10-06T11:34:15.332Z,79.80
2022-10-06T11:39:16.484Z,79.30
2022-10-06T11:41:50.472Z,79.20
2022-10-06T11:50:53.190Z,79.30
2022-10-06T11:52:57.109Z,78.80
2022-10-06T11:55:37.337Z,78.70
2022-10-06T11:58:41.319Z,78.70
2022-10-06T12:12:01.990Z,77.40
2022-10-06T12:17:31.147Z,78.60
2022-10-06T12:20:56.058Z,77.50
2022-10-06T12:23:36.203Z,78.40
2022-10-06T12:26:04.961Z,78.30
2022-10-06T12:28:34.780Z,78.40
2022-10-06T12:31:06.320Z,78.90
2022-10-06T12:33:11.672Z,78.20
2022-10-06T12:38:34.511Z,77.60
2022-10-06T12:41:50.394Z,77.00
2022-10-06T12:44:26.809Z,76.40
2022-10-06T12:46:49.811Z,75.90
2022-10-06T12:49:04.583Z,75.90
2022-10-06T12:51:54.747Z,75.50
2022-10-06T12:54:22.648Z,74.80
2022-10-06T12:56:47.636Z,74.90
2022-10-06T13:02:52.157Z,74.80
2022-10-06T13:06:09.706Z,75.60
2022-10-06T13:08:25.272Z,76.00
2022-10-06T13:10:33.359Z,76.00
2022-10-06T13:15:15.004Z,75.50
2022-10-06T13:20:25.130Z,75.90
2022-10-06T13:26:01.131Z,76.60
2022-10-06T13:38:40.618Z,74.90
2022-10-06T13:41:25.412Z,75.40
2022-10-06T13:46:19.886Z,74.40
2022-10-06T13:49:01.164Z,73.90
2022-10-06T13:51:07.200Z,73.60
2022-10-06T13:57:04.152Z,74.30
2022-10-06T14:00:02.053Z,73.80
2022-10-06T14:02:55.213Z,74.00
2022-10-06T14:05:38.304Z,72.80
2022-10-06T14:10:56.331Z,74.80
2022-10-06T14:13:08.994Z,73.80
2022-10-06T14:15:32.106Z,73.90
2022-10-06T14:18:05.318Z,74.50
2022-10-06T14:20:46.367Z,74.10
2022-10-06T14:23:39.150Z,73.10
2022-10-06T14:26:51.042Z,72.50
2022-10-06T14:44:10.403Z,68.70
2022-10-06T15:03:40.254Z,66.40
2022-10-06T15:06:07.347Z,66.00
2022-10-06T15:08:34.996Z,65.50
2022-10-06T15:13:47.127Z,64.70
2022-10-06T15:16:41.828Z,64.50
2022-10-06T15:39:34.126Z,62.20
2022-10-06T15:42:00.540Z,63.20
2022-10-06T15:44:13.949Z,63.10
2022-10-06T15:49:06.589Z,63.70
2022-10-06T15:52:11.136Z,63.80
2022-10-06T15:54:22.085Z,63.60
2022-10-06T16:06:10.144Z,64.80
2022-10-06T16:08:51.310Z,64.90
2022-10-06T16:31:49.345Z,72.80
2022-10-06T16:34:30.449Z,74.00
2022-10-06T17:17:55.565Z,86.40
2022-10-06T17:23:28.048Z,90.10
2022-10-06T17:25:34.420Z,91.40
2022-10-06T17:27:44.294Z,92.30
2022-10-06T17:33:15.858Z,94.10
2022-10-06T17:35:57.275Z,95.10
2022-10-06T17:38:09.605Z,96.50
2022-10-06T17:42:47.807Z,98.90
2022-10-06T17:45:08.868Z,99.90
2022-10-06T17:47:49.327Z,99.90
2022-10-06T17:49:53.661Z,99.90
2022-10-06T17:51:59.088Z,99.90
2022-10-06T17:54:26.140Z,99.90
2022-10-06T17:59:59.004Z,99.90
2022-10-06T18:02:13.548Z,99.90
2022-10-06T18:05:00.061Z,99.90
2022-10-06T18:07:12.508Z,99.90
2022-10-06T18:09:47.507Z,99.90
2022-10-06T18:12:21.540Z,99.90
2022-10-06T18:14:54.383Z,99.90
2022-10-06T18:17:08.980Z,99.90
2022-10-06T18:19:54.242Z,99.90
2022-10-06T18:22:24.304Z,99.90
2022-10-06T18:24:59.394Z,99.90
2022-10-06T18:27:39.162Z,99.90
2022-10-06T18:30:12.526Z,99.90
2022-10-06T18:38:40.486Z,99.90
2022-10-06T18:43:03.157Z,99.90
2022-10-06T18:45:36.774Z,99.90
2022-10-06T18:51:29.313Z,99.90
2022-10-06T18:54:09.347Z,99.90
2022-10-06T18:59:16.793Z,99.90
2022-10-06T19:06:36.613Z,99.90
2022-10-06T19:09:09.759Z,99.90
2022-10-06T19:14:47.851Z,99.90
2022-10-06T19:16:56.660Z,99.90
2022-10-06T19:23:46.886Z,99.90
2022-10-06T19:26:10.027Z,99.90
2022-10-06T19:28:30.593Z,99.90
2022-10-06T19:31:32.765Z,99.90
2022-10-06T19:34:36.559Z,99.90
2022-10-06T19:39:56.170Z,99.90
2022-10-06T19:50:57.417Z,99.90
2022-10-06T19:53:21.531Z,99.90
2022-10-06T19:58:33.445Z,99.90
2022-10-06T20:03:20.311Z,99.90
2022-10-06T20:15:15.695Z,99.90
2022-10-06T20:17:23.580Z,99.90
2022-10-06T20:32:32.510Z,99.90
2022-10-06T20:39:04.270Z,99.90
2022-10-06T20:42:05.013Z,99.90
2022-10-06T20:57:51.514Z,99.90
2022-10-06T21:01:05.175Z,99.90
2022-10-06T21:14:12.118Z,99.90
2022-10-06T22:13:02.285Z,99.90
2022-10-06T22:24:28.108Z,99.90
2022-10-06T22:26:55.656Z,99.90
2022-10-06T22:33:53.520Z,99.90
2022-10-06T22:36:00.195Z,99.90
2022-10-06T22:38:04.936Z,99.90
2022-10-06T22:40:12.331Z,99.90
2022-10-06T22:42:15.777Z,99.90
2022-10-06T22:44:22.000Z,99.90
2022-10-06T22:46:50.869Z,99.90
2022-10-06T22:48:56.291Z,99.90
2022-10-06T22:51:07.165Z,99.90
2022-10-06T22:53:47.285Z,99.90
2022-10-06T22:55:50.951Z,99.90
2022-10-06T22:57:58.493Z,99.90
2022-10-06T23:00:03.757Z,99.90
2022-10-06T23:02:07.283Z,99.90
2022-10-06T23:04:12.125Z,99.90
2022-10-06T23:06:19.736Z,99.90
2022-10-06T23:08:23.208Z,99.90
2022-10-06T23:10:30.632Z,99.90
2022-10-06T23:12:39.355Z,99.90
2022-10-06T23:14:43.859Z,99.90
2022-10-06T23:16:47.859Z,99.90
2022-10-06T23:18:59.718Z,99.90
2022-10-06T23:21:11.042Z,99.90
2022-10-06T23:23:51.902Z,99.90
2022-10-06T23:26:12.303Z,99.90
2022-10-06T23:31:31.967Z,99.90
2022-10-06T23:34:48.021Z,99.90
2022-10-06T23:39:04.294Z,99.90
2022-10-06T23:44:30.365Z,99.90
2022-10-06T23:46:37.061Z,99.90
2022-10-06T23:49:18.711Z,99.90
2022-10-06T23:51:40.448Z,99.90
2022-10-06T23:53:44.252Z,99.90
2022-10-06T23:56:07.649Z,99.90
